sensor_id;sensor_type;location;lat;lon;timestamp;pressure;altitude;pressure_sealevel;temperature;humidity
43711;BME280;29309;42.682;23.372;2023-03-19T00:01:05;95756.16;;;2.31;65.81
43711;BME280;29309;42.682;23.372;2023-03-19T00:03:31;95747.19;;;2.31;66.36
43711;BME280;29309;42.682;23.372;2023-03-19T00:05:56;95751.75;;;2.28;66.20
43711;BME280;29309;42.682;23.372;2023-03-19T00:08:22;95749.94;;;2.23;66.71
43711;BME280;29309;42.682;23.372;2023-03-19T00:10:48;95744.81;;;2.27;66.67
43711;BME280;29309;42.682;23.372;2023-03-19T00:13:13;95742.63;;;2.18;66.74
43711;BME280;29309;42.682;23.372;2023-03-19T00:15:39;95739.53;;;2.14;66.98
43711;BME280;29309;42.682;23.372;2023-03-19T00:18:05;95744.28;;;2.14;66.81
43711;BME280;29309;42.682;23.372;2023-03-19T00:20:31;95748.47;;;2.07;67.68
43711;BME280;29309;42.682;23.372;2023-03-19T00:22:57;95751.41;;;2.09;67.58
43711;BME280;29309;42.682;23.372;2023-03-19T00:25:22;95737.53;;;2.07;67.85
43711;BME280;29309;42.682;23.372;2023-03-19T00:27:48;95733.53;;;2.01;67.79
43711;BME280;29309;42.682;23.372;2023-03-19T00:30:14;95735.34;;;1.98;68.07
43711;BME280;29309;42.682;23.372;2023-03-19T00:32:39;95735.91;;;1.96;67.98
43711;BME280;29309;42.682;23.372;2023-03-19T00:35:05;95729.88;;;1.98;68.42
43711;BME280;29309;42.682;23.372;2023-03-19T00:37:32;95727.50;;;2.02;68.67
43711;BME280;29309;42.682;23.372;2023-03-19T00:39:57;95720.94;;;2.05;68.55
43711;BME280;29309;42.682;23.372;2023-03-19T00:42:24;95717.09;;;2.08;68.78
43711;BME280;29309;42.682;23.372;2023-03-19T00:44:49;95713.63;;;2.08;68.64
43711;BME280;29309;42.682;23.372;2023-03-19T00:47:15;95716.34;;;2.08;68.62
43711;BME280;29309;42.682;23.372;2023-03-19T00:49:40;95709.78;;;1.95;68.79
43711;BME280;29309;42.682;23.372;2023-03-19T00:52:06;95709.25;;;1.89;68.91
43711;BME280;29309;42.682;23.372;2023-03-19T00:54:32;95710.88;;;1.85;69.27
43711;BME280;29309;42.682;23.372;2023-03-19T00:56:57;95715.66;;;1.84;69.09
43711;BME280;29309;42.682;23.372;2023-03-19T00:59:23;95702.50;;;1.83;69.14
43711;BME280;29309;42.682;23.372;2023-03-19T01:01:50;95709.81;;;1.80;69.21
43711;BME280;29309;42.682;23.372;2023-03-19T01:04:16;95717.66;;;1.76;69.66
43711;BME280;29309;42.682;23.372;2023-03-19T01:06:42;95719.28;;;1.72;70.07
43711;BME280;29309;42.682;23.372;2023-03-19T01:09:08;95718.38;;;1.69;70.78
43711;BME280;29309;42.682;23.372;2023-03-19T01:11:34;95710.53;;;1.66;70.47
43711;BME280;29309;42.682;23.372;2023-03-19T01:13:59;95707.25;;;1.67;70.02
43711;BME280;29309;42.682;23.372;2023-03-19T01:16:26;95705.06;;;1.66;69.61
43711;BME280;29309;42.682;23.372;2023-03-19T01:18:52;95706.50;;;1.67;69.90
43711;BME280;29309;42.682;23.372;2023-03-19T01:21:18;95708.34;;;1.64;69.81
43711;BME280;29309;42.682;23.372;2023-03-19T01:23:44;95706.53;;;1.59;69.65
43711;BME280;29309;42.682;23.372;2023-03-19T01:26:09;95706.16;;;1.55;69.82
43711;BME280;29309;42.682;23.372;2023-03-19T01:28:35;95705.97;;;1.53;71.64
43711;BME280;29309;42.682;23.372;2023-03-19T01:31:04;95689.00;;;1.47;71.24
43711;BME280;29309;42.682;23.372;2023-03-19T01:33:30;95698.13;;;1.49;71.40
43711;BME280;29309;42.682;23.372;2023-03-19T01:35:55;95696.31;;;1.44;71.85
43711;BME280;29309;42.682;23.372;2023-03-19T01:38:23;95696.31;;;1.44;71.29
43711;BME280;29309;42.682;23.372;2023-03-19T01:40:50;95704.31;;;1.42;70.80
43711;BME280;29309;42.682;23.372;2023-03-19T01:43:23;95702.50;;;1.37;70.70
43711;BME280;29309;42.682;23.372;2023-03-19T01:45:50;95691.34;;;1.28;71.74
43711;BME280;29309;42.682;23.372;2023-03-19T01:48:29;95702.47;;;1.30;72.38
43711;BME280;29309;42.682;23.372;2023-03-19T01:50:57;95701.75;;;1.29;71.66
43711;BME280;29309;42.682;23.372;2023-03-19T01:53:27;95702.84;;;1.26;71.22
43711;BME280;29309;42.682;23.372;2023-03-19T01:56:00;95698.25;;;1.21;70.81
43711;BME280;29309;42.682;23.372;2023-03-19T01:58:28;95707.56;;;1.18;70.76
43711;BME280;29309;42.682;23.372;2023-03-19T02:00:54;95699.34;;;1.18;71.37
43711;BME280;29309;42.682;23.372;2023-03-19T02:03:20;95698.25;;;1.21;71.09
43711;BME280;29309;42.682;23.372;2023-03-19T02:05:47;95704.81;;;1.18;71.20
43711;BME280;29309;42.682;23.372;2023-03-19T02:08:16;95705.19;;;1.15;71.48
43711;BME280;29309;42.682;23.372;2023-03-19T02:10:43;95702.44;;;1.15;71.64
43711;BME280;29309;42.682;23.372;2023-03-19T02:13:10;95707.72;;;1.13;71.89
43711;BME280;29309;42.682;23.372;2023-03-19T02:15:36;95711.91;;;1.14;71.63
43711;BME280;29309;42.682;23.372;2023-03-19T02:18:02;95703.91;;;1.16;71.51
43711;BME280;29309;42.682;23.372;2023-03-19T02:20:35;95703.72;;;1.14;71.85
43711;BME280;29309;42.682;23.372;2023-03-19T02:23:37;95703.34;;;1.10;71.54
43711;BME280;29309;42.682;23.372;2023-03-19T02:26:10;95702.44;;;1.07;71.92
43711;BME280;29309;42.682;23.372;2023-03-19T02:28:41;95712.09;;;1.08;71.72
43711;BME280;29309;42.682;23.372;2023-03-19T02:31:09;95702.44;;;1.07;71.53
43711;BME280;29309;42.682;23.372;2023-03-19T02:33:35;95697.69;;;1.00;72.45
43711;BME280;29309;42.682;23.372;2023-03-19T02:36:02;95706.59;;;0.93;72.36
43711;BME280;29309;42.682;23.372;2023-03-19T02:38:32;95711.31;;;0.92;72.58
43711;BME280;29309;42.682;23.372;2023-03-19T02:41:03;95709.66;;;0.89;72.05
43711;BME280;29309;42.682;23.372;2023-03-19T02:43:31;95705.66;;;0.83;72.00
43711;BME280;29309;42.682;23.372;2023-03-19T02:45:57;95717.63;;;0.80;71.41
43711;BME280;29309;42.682;23.372;2023-03-19T02:48:23;95700.31;;;0.77;71.40
43711;BME280;29309;42.682;23.372;2023-03-19T02:50:49;95713.63;;;0.81;71.52
43711;BME280;29309;42.682;23.372;2023-03-19T02:53:14;95708.91;;;0.81;71.78
43711;BME280;29309;42.682;23.372;2023-03-19T02:55:40;95706.91;;;0.82;71.56
43711;BME280;29309;42.682;23.372;2023-03-19T02:58:06;95708.03;;;0.86;71.43
43711;BME280;29309;42.682;23.372;2023-03-19T03:00:31;95716.94;;;0.87;71.84
43711;BME280;29309;42.682;23.372;2023-03-19T03:02:57;95702.56;;;0.86;72.00
43711;BME280;29309;42.682;23.372;2023-03-19T03:05:23;95710.19;;;0.88;72.06
43711;BME280;29309;42.682;23.372;2023-03-19T03:07:49;95710.03;;;0.86;72.84
43711;BME280;29309;42.682;23.372;2023-03-19T03:10:15;95716.75;;;0.85;72.99
43711;BME280;29309;42.682;23.372;2023-03-19T03:12:41;95718.72;;;0.77;74.19
43711;BME280;29309;42.682;23.372;2023-03-19T03:15:07;95719.81;;;0.74;74.02
43711;BME280;29309;42.682;23.372;2023-03-19T03:17:37;95728.56;;;0.72;73.87
43711;BME280;29309;42.682;23.372;2023-03-19T03:20:04;95732.56;;;0.71;73.82
43711;BME280;29309;42.682;23.372;2023-03-19T03:22:30;95734.16;;;0.67;73.53
43711;BME280;29309;42.682;23.372;2023-03-19T03:24:57;95738.38;;;0.68;73.53
43711;BME280;29309;42.682;23.372;2023-03-19T03:27:22;95736.16;;;0.66;73.57
43711;BME280;29309;42.682;23.372;2023-03-19T03:29:48;95730.91;;;0.68;73.74
43711;BME280;29309;42.682;23.372;2023-03-19T03:32:13;95735.09;;;0.69;73.68
43711;BME280;29309;42.682;23.372;2023-03-19T03:34:39;95735.44;;;0.66;73.60
43711;BME280;29309;42.682;23.372;2023-03-19T03:37:05;95736.91;;;0.67;73.65
43711;BME280;29309;42.682;23.372;2023-03-19T03:39:30;95744.56;;;0.68;73.74
43711;BME280;29309;42.682;23.372;2023-03-19T03:41:56;95739.84;;;0.69;73.89
43711;BME280;29309;42.682;23.372;2023-03-19T03:44:21;95744.38;;;0.66;73.95
43711;BME280;29309;42.682;23.372;2023-03-19T03:46:47;95745.31;;;0.69;73.96
43711;BME280;29309;42.682;23.372;2023-03-19T03:49:13;95748.75;;;0.69;73.70
43711;BME280;29309;42.682;23.372;2023-03-19T03:51:39;95740.72;;;0.64;73.51
43711;BME280;29309;42.682;23.372;2023-03-19T03:54:05;95743.44;;;0.64;73.66
43711;BME280;29309;42.682;23.372;2023-03-19T03:56:31;95744.19;;;0.64;73.89
43711;BME280;29309;42.682;23.372;2023-03-19T03:58:57;95741.59;;;0.59;73.69
43711;BME280;29309;42.682;23.372;2023-03-19T04:01:23;95753.81;;;0.58;74.24
43711;BME280;29309;42.682;23.372;2023-03-19T04:03:48;95749.06;;;0.58;73.84
43711;BME280;29309;42.682;23.372;2023-03-19T04:06:18;95753.59;;;0.56;74.03
43711;BME280;29309;42.682;23.372;2023-03-19T04:08:48;95747.75;;;0.52;73.80
43711;BME280;29309;42.682;23.372;2023-03-19T04:11:13;95742.63;;;0.48;74.22
43711;BME280;29309;42.682;23.372;2023-03-19T04:13:39;95740.06;;;0.42;74.35
43711;BME280;29309;42.682;23.372;2023-03-19T04:16:06;95746.06;;;0.41;74.47
43711;BME280;29309;42.682;23.372;2023-03-19T04:18:34;95740.94;;;0.37;74.67
43711;BME280;29309;42.682;23.372;2023-03-19T04:21:00;95732.00;;;0.37;74.85
43711;BME280;29309;42.682;23.372;2023-03-19T04:23:25;95740.03;;;0.35;74.46
43711;BME280;29309;42.682;23.372;2023-03-19T04:25:52;95733.25;;;0.28;74.38
43711;BME280;29309;42.682;23.372;2023-03-19T04:28:22;95739.56;;;0.23;74.67
43711;BME280;29309;42.682;23.372;2023-03-19T04:30:47;95746.28;;;0.22;74.74
43711;BME280;29309;42.682;23.372;2023-03-19T04:33:13;95746.13;;;0.20;75.03
43711;BME280;29309;42.682;23.372;2023-03-19T04:35:38;95746.13;;;0.20;74.64
43711;BME280;29309;42.682;23.372;2023-03-19T04:38:03;95757.03;;;0.20;75.09
43711;BME280;29309;42.682;23.372;2023-03-19T04:40:29;95755.72;;;0.14;75.10
43711;BME280;29309;42.682;23.372;2023-03-19T04:42:55;95751.13;;;0.09;75.45
43711;BME280;29309;42.682;23.372;2023-03-19T04:45:21;95757.66;;;0.06;75.58
43711;BME280;29309;42.682;23.372;2023-03-19T04:47:46;95751.28;;;0.03;75.93
43711;BME280;29309;42.682;23.372;2023-03-19T04:50:12;95750.22;;;0.06;76.03
43711;BME280;29309;42.682;23.372;2023-03-19T04:52:38;95745.59;;;0.01;75.88
43711;BME280;29309;42.682;23.372;2023-03-19T04:55:05;95743.22;;;-0.03;76.56
43711;BME280;29309;42.682;23.372;2023-03-19T04:57:31;95745.44;;;-0.01;76.61
43711;BME280;29309;42.682;23.372;2023-03-19T04:59:57;95744.16;;;0.00;76.56
43711;BME280;29309;42.682;23.372;2023-03-19T05:02:22;95752.53;;;0.02;76.79
43711;BME280;29309;42.682;23.372;2023-03-19T05:04:48;95750.00;;;0.04;77.04
43711;BME280;29309;42.682;23.372;2023-03-19T05:07:13;95748.56;;;0.03;77.14
43711;BME280;29309;42.682;23.372;2023-03-19T05:09:38;95756.59;;;0.09;76.95
43711;BME280;29309;42.682;23.372;2023-03-19T05:12:05;95754.25;;;0.13;76.99
43711;BME280;29309;42.682;23.372;2023-03-19T05:14:31;95756.63;;;0.16;76.64
43711;BME280;29309;42.682;23.372;2023-03-19T05:16:56;95760.69;;;0.23;76.63
43711;BME280;29309;42.682;23.372;2023-03-19T05:19:22;95761.66;;;0.33;76.16
43711;BME280;29309;42.682;23.372;2023-03-19T05:21:47;95756.78;;;0.39;75.91
43711;BME280;29309;42.682;23.372;2023-03-19T05:24:13;95763.75;;;0.47;75.88
43711;BME280;29309;42.682;23.372;2023-03-19T05:26:39;95758.88;;;0.54;76.16
43711;BME280;29309;42.682;23.372;2023-03-19T05:29:04;95757.28;;;0.66;75.48
43711;BME280;29309;42.682;23.372;2023-03-19T05:31:30;95761.50;;;0.67;75.10
43711;BME280;29309;42.682;23.372;2023-03-19T05:33:55;95763.09;;;0.62;74.43
43711;BME280;29309;42.682;23.372;2023-03-19T05:36:21;95762.91;;;0.60;74.32
43711;BME280;29309;42.682;23.372;2023-03-19T05:38:47;95758.19;;;0.61;74.19
43711;BME280;29309;42.682;23.372;2023-03-19T05:41:12;95763.44;;;0.59;74.17
43711;BME280;29309;42.682;23.372;2023-03-19T05:43:38;95758.56;;;0.65;74.03
43711;BME280;29309;42.682;23.372;2023-03-19T05:46:03;95766.78;;;0.65;73.74
43711;BME280;29309;42.682;23.372;2023-03-19T05:48:28;95765.69;;;0.68;74.60
43711;BME280;29309;42.682;23.372;2023-03-19T05:50:54;95773.38;;;0.77;74.31
43711;BME280;29309;42.682;23.372;2023-03-19T05:53:20;95767.72;;;0.75;74.58
43711;BME280;29309;42.682;23.372;2023-03-19T05:55:47;95775.06;;;0.87;74.18
43711;BME280;29309;42.682;23.372;2023-03-19T05:58:12;95776.03;;;1.05;74.28
43711;BME280;29309;42.682;23.372;2023-03-19T06:00:38;95770.47;;;1.26;73.51
43711;BME280;29309;42.682;23.372;2023-03-19T06:03:03;95761.78;;;1.58;73.14
43711;BME280;29309;42.682;23.372;2023-03-19T06:05:28;95770.38;;;1.92;71.77
43711;BME280;29309;42.682;23.372;2023-03-19T06:07:54;95764.00;;;2.27;70.51
43711;BME280;29309;42.682;23.372;2023-03-19T06:10:19;95764.13;;;2.67;69.16
43711;BME280;29309;42.682;23.372;2023-03-19T06:12:45;95759.94;;;3.14;67.98
43711;BME280;29309;42.682;23.372;2023-03-19T06:15:11;95762.56;;;3.69;65.84
43711;BME280;29309;42.682;23.372;2023-03-19T06:17:36;95759.31;;;4.12;63.56
43711;BME280;29309;42.682;23.372;2023-03-19T06:20:02;95770.38;;;4.64;61.81
43711;BME280;29309;42.682;23.372;2023-03-19T06:22:27;95769.50;;;4.95;59.09
43711;BME280;29309;42.682;23.372;2023-03-19T06:24:53;95766.66;;;5.20;57.67
43711;BME280;29309;42.682;23.372;2023-03-19T06:27:18;95765.38;;;5.48;57.60
43711;BME280;29309;42.682;23.372;2023-03-19T06:29:44;95778.97;;;5.73;55.14
43711;BME280;29309;42.682;23.372;2023-03-19T06:32:09;95773.50;;;5.82;54.12
43711;BME280;29309;42.682;23.372;2023-03-19T06:34:35;95773.69;;;6.11;55.19
43711;BME280;29309;42.682;23.372;2023-03-19T06:37:00;95781.47;;;6.51;54.83
43711;BME280;29309;42.682;23.372;2023-03-19T06:39:26;95793.00;;;6.96;54.75
43711;BME280;29309;42.682;23.372;2023-03-19T06:41:52;95783.56;;;7.37;52.99
43711;BME280;29309;42.682;23.372;2023-03-19T06:44:17;95782.31;;;7.78;50.07
43711;BME280;29309;42.682;23.372;2023-03-19T06:46:43;95785.56;;;7.56;49.62
43711;BME280;29309;42.682;23.372;2023-03-19T06:49:08;95781.41;;;7.95;48.11
43711;BME280;29309;42.682;23.372;2023-03-19T06:51:34;95786.94;;;8.35;46.59
43711;BME280;29309;42.682;23.372;2023-03-19T06:54:00;95790.94;;;8.75;47.33
43711;BME280;29309;42.682;23.372;2023-03-19T06:56:25;95791.22;;;9.00;45.94
43711;BME280;29309;42.682;23.372;2023-03-19T06:58:51;95790.44;;;9.42;44.97
43711;BME280;29309;42.682;23.372;2023-03-19T07:01:17;95797.69;;;9.92;43.73
43711;BME280;29309;42.682;23.372;2023-03-19T07:03:43;95781.59;;;10.34;42.72
43711;BME280;29309;42.682;23.372;2023-03-19T07:06:08;95788.53;;;10.82;41.72
43711;BME280;29309;42.682;23.372;2023-03-19T07:08:34;95788.34;;;11.15;39.18
43711;BME280;29309;42.682;23.372;2023-03-19T07:11:06;95788.22;;;11.24;41.82
43711;BME280;29309;42.682;23.372;2023-03-19T07:13:32;95793.56;;;11.46;39.23
43711;BME280;29309;42.682;23.372;2023-03-19T07:15:58;95797.25;;;11.62;37.93
43711;BME280;29309;42.682;23.372;2023-03-19T07:18:24;95802.66;;;11.46;38.87
43711;BME280;29309;42.682;23.372;2023-03-19T07:20:50;95802.41;;;11.79;40.59
43711;BME280;29309;42.682;23.372;2023-03-19T07:23:17;95795.00;;;12.22;38.25
43711;BME280;29309;42.682;23.372;2023-03-19T07:25:43;95787.97;;;12.21;37.53
43711;BME280;29309;42.682;23.372;2023-03-19T07:28:09;95785.34;;;12.51;36.99
43711;BME280;29309;42.682;23.372;2023-03-19T07:30:34;95773.47;;;12.77;36.12
43711;BME280;29309;42.682;23.372;2023-03-19T07:33:00;95782.00;;;12.95;35.95
43711;BME280;29309;42.682;23.372;2023-03-19T07:35:25;95777.78;;;13.08;35.84
43711;BME280;29309;42.682;23.372;2023-03-19T07:37:51;95781.16;;;13.34;37.78
43711;BME280;29309;42.682;23.372;2023-03-19T07:40:16;95783.38;;;13.51;36.58
43711;BME280;29309;42.682;23.372;2023-03-19T07:42:42;95777.53;;;13.90;35.32
43711;BME280;29309;42.682;23.372;2023-03-19T07:45:08;95782.56;;;13.93;34.52
43711;BME280;29309;42.682;23.372;2023-03-19T07:47:33;95787.25;;;13.89;34.37
43711;BME280;29309;42.682;23.372;2023-03-19T07:49:59;95786.91;;;13.96;35.27
43711;BME280;29309;42.682;23.372;2023-03-19T07:52:25;95783.84;;;14.06;35.57
43711;BME280;29309;42.682;23.372;2023-03-19T07:54:50;95788.03;;;14.36;32.81
43711;BME280;29309;42.682;23.372;2023-03-19T07:57:16;95783.09;;;14.35;33.48
43711;BME280;29309;42.682;23.372;2023-03-19T07:59:42;95791.81;;;14.74;32.96
43711;BME280;29309;42.682;23.372;2023-03-19T08:02:11;95780.38;;;15.01;32.05
43711;BME280;29309;42.682;23.372;2023-03-19T08:04:37;95786.47;;;14.96;34.04
43711;BME280;29309;42.682;23.372;2023-03-19T08:07:03;95782.78;;;15.42;31.44
43711;BME280;29309;42.682;23.372;2023-03-19T08:09:28;95783.09;;;15.66;32.90
43711;BME280;29309;42.682;23.372;2023-03-19T08:11:54;95785.94;;;15.68;32.04
43711;BME280;29309;42.682;23.372;2023-03-19T08:14:20;95779.00;;;15.69;32.07
43711;BME280;29309;42.682;23.372;2023-03-19T08:16:47;95779.47;;;15.81;30.66
43711;BME280;29309;42.682;23.372;2023-03-19T08:19:13;95782.00;;;15.93;30.25
43711;BME280;29309;42.682;23.372;2023-03-19T08:21:39;95777.19;;;16.13;29.56
43711;BME280;29309;42.682;23.372;2023-03-19T08:24:04;95777.88;;;16.31;29.98
43711;BME280;29309;42.682;23.372;2023-03-19T08:26:30;95768.41;;;16.03;29.28
43711;BME280;29309;42.682;23.372;2023-03-19T08:28:57;95773.28;;;15.85;31.43
43711;BME280;29309;42.682;23.372;2023-03-19T08:31:23;95769.22;;;15.70;30.47
43711;BME280;29309;42.682;23.372;2023-03-19T08:33:49;95770.41;;;15.30;30.43
43711;BME280;29309;42.682;23.372;2023-03-19T08:36:14;95773.94;;;14.97;30.21
43711;BME280;29309;42.682;23.372;2023-03-19T08:38:41;95768.44;;;14.83;31.23
43711;BME280;29309;42.682;23.372;2023-03-19T08:41:07;95761.66;;;15.21;32.24
43711;BME280;29309;42.682;23.372;2023-03-19T08:43:34;95755.84;;;15.15;30.06
43711;BME280;29309;42.682;23.372;2023-03-19T08:46:01;95761.16;;;15.09;32.20
43711;BME280;29309;42.682;23.372;2023-03-19T08:48:27;95749.00;;;15.54;30.82
43711;BME280;29309;42.682;23.372;2023-03-19T08:50:57;95749.78;;;15.74;30.43
43711;BME280;29309;42.682;23.372;2023-03-19T08:53:23;95747.97;;;15.81;33.67
43711;BME280;29309;42.682;23.372;2023-03-19T08:55:54;95748.69;;;16.18;31.48
43711;BME280;29309;42.682;23.372;2023-03-19T08:58:19;95744.97;;;16.51;31.94
43711;BME280;29309;42.682;23.372;2023-03-19T09:00:46;95737.00;;;16.83;29.21
43711;BME280;29309;42.682;23.372;2023-03-19T09:03:12;95730.03;;;16.84;31.50
43711;BME280;29309;42.682;23.372;2023-03-19T09:05:37;95731.59;;;17.09;32.17
43711;BME280;29309;42.682;23.372;2023-03-19T09:08:03;95728.47;;;17.20;29.66
43711;BME280;29309;42.682;23.372;2023-03-19T09:10:28;95719.78;;;17.34;28.52
43711;BME280;29309;42.682;23.372;2023-03-19T09:12:54;95720.44;;;17.33;27.94
43711;BME280;29309;42.682;23.372;2023-03-19T09:15:19;95711.75;;;17.25;28.16
43711;BME280;29309;42.682;23.372;2023-03-19T09:17:45;95713.66;;;17.40;28.52
43711;BME280;29309;42.682;23.372;2023-03-19T09:20:10;95713.31;;;17.51;29.07
43711;BME280;29309;42.682;23.372;2023-03-19T09:22:36;95715.53;;;17.55;27.43
43711;BME280;29309;42.682;23.372;2023-03-19T09:25:01;95713.31;;;17.73;26.56
43711;BME280;29309;42.682;23.372;2023-03-19T09:27:27;95714.03;;;17.74;26.80
43711;BME280;29309;42.682;23.372;2023-03-19T09:29:53;95715.59;;;17.79;25.79
43711;BME280;29309;42.682;23.372;2023-03-19T09:32:18;95716.38;;;17.81;26.89
43711;BME280;29309;42.682;23.372;2023-03-19T09:34:44;95709.19;;;17.76;25.14
43711;BME280;29309;42.682;23.372;2023-03-19T09:37:11;95706.63;;;17.60;25.87
43711;BME280;29309;42.682;23.372;2023-03-19T09:39:36;95704.25;;;17.75;25.38
43711;BME280;29309;42.682;23.372;2023-03-19T09:44:36;95708.41;;;17.74;27.06
43711;BME280;29309;42.682;23.372;2023-03-19T09:49:55;95709.41;;;17.39;25.62
43711;BME280;29309;42.682;23.372;2023-03-19T09:52:39;95701.03;;;17.41;26.41
43711;BME280;29309;42.682;23.372;2023-03-19T09:55:14;95695.75;;;17.07;25.42
43711;BME280;29309;42.682;23.372;2023-03-19T09:57:41;95699.63;;;16.77;27.06
43711;BME280;29309;42.682;23.372;2023-03-19T10:02:42;95693.56;;;16.62;29.00
43711;BME280;29309;42.682;23.372;2023-03-19T10:05:17;95680.53;;;16.71;27.81
43711;BME280;29309;42.682;23.372;2023-03-19T10:08:06;95678.84;;;16.84;26.61
43711;BME280;29309;42.682;23.372;2023-03-19T10:15:41;95678.66;;;16.38;27.52
43711;BME280;29309;42.682;23.372;2023-03-19T10:18:18;95667.28;;;16.54;28.46
43711;BME280;29309;42.682;23.372;2023-03-19T10:20:57;95670.41;;;16.62;27.12
43711;BME280;29309;42.682;23.372;2023-03-19T10:25:54;95649.88;;;16.77;26.04
43711;BME280;29309;42.682;23.372;2023-03-19T10:28:21;95657.09;;;16.43;26.38
43711;BME280;29309;42.682;23.372;2023-03-19T10:31:10;95648.28;;;16.31;27.27
43711;BME280;29309;42.682;23.372;2023-03-19T10:33:43;95647.22;;;16.20;26.88
43711;BME280;29309;42.682;23.372;2023-03-19T10:36:11;95635.00;;;16.31;27.20
43711;BME280;29309;42.682;23.372;2023-03-19T10:38:41;95638.56;;;16.34;27.18
43711;BME280;29309;42.682;23.372;2023-03-19T10:41:37;95632.63;;;16.23;27.64
43711;BME280;29309;42.682;23.372;2023-03-19T10:44:13;95635.00;;;16.31;27.18
43711;BME280;29309;42.682;23.372;2023-03-19T10:46:41;95619.44;;;16.48;30.21
43711;BME280;29309;42.682;23.372;2023-03-19T10:49:11;95611.41;;;16.58;30.39
43711;BME280;29309;42.682;23.372;2023-03-19T10:51:37;95605.56;;;16.52;27.93
43711;BME280;29309;42.682;23.372;2023-03-19T10:54:26;95594.72;;;16.62;27.89
43711;BME280;29309;42.682;23.372;2023-03-19T10:56:55;95599.75;;;16.65;27.08
43711;BME280;29309;42.682;23.372;2023-03-19T10:59:36;95594.91;;;16.68;27.13
43711;BME280;29309;42.682;23.372;2023-03-19T11:02:18;95599.75;;;16.65;27.27
43711;BME280;29309;42.682;23.372;2023-03-19T11:04:44;95592.56;;;16.60;27.39
43711;BME280;29309;42.682;23.372;2023-03-19T11:07:13;95572.28;;;16.20;26.74
43711;BME280;29309;42.682;23.372;2023-03-19T11:09:43;95577.81;;;16.18;27.02
43711;BME280;29309;42.682;23.372;2023-03-19T11:12:33;95568.31;;;16.28;28.73
43711;BME280;29309;42.682;23.372;2023-03-19T11:15:01;95569.81;;;16.31;27.39
43711;BME280;29309;42.682;23.372;2023-03-19T11:22:40;95556.50;;;15.90;28.64
43711;BME280;29309;42.682;23.372;2023-03-19T11:25:18;95550.38;;;15.95;28.03
43711;BME280;29309;42.682;23.372;2023-03-19T11:30:25;95538.94;;;16.29;28.61
43711;BME280;29309;42.682;23.372;2023-03-19T11:33:07;95533.03;;;16.62;27.89
43711;BME280;29309;42.682;23.372;2023-03-19T11:38:21;95519.72;;;16.84;27.30
43711;BME280;29309;42.682;23.372;2023-03-19T11:43:34;95520.00;;;17.16;26.61
43711;BME280;29309;42.682;23.372;2023-03-19T11:51:50;95510.13;;;17.88;25.96
43711;BME280;29309;42.682;23.372;2023-03-19T11:56:47;95504.44;;;18.40;24.31
43711;BME280;29309;42.682;23.372;2023-03-19T12:07:39;95484.88;;;19.37;24.80
43711;BME280;29309;42.682;23.372;2023-03-19T12:21:17;95471.63;;;21.05;23.98
43711;BME280;29309;42.682;23.372;2023-03-19T12:26:43;95471.75;;;21.12;22.26
43711;BME280;29309;42.682;23.372;2023-03-19T12:29:23;95466.31;;;21.26;22.01
43711;BME280;29309;42.682;23.372;2023-03-19T12:35:02;95455.59;;;21.16;22.15
43711;BME280;29309;42.682;23.372;2023-03-19T12:37:38;95454.41;;;20.83;23.07
43711;BME280;29309;42.682;23.372;2023-03-19T12:42:37;95450.00;;;19.18;24.99
43711;BME280;29309;42.682;23.372;2023-03-19T12:45:11;95451.88;;;18.46;26.04
43711;BME280;29309;42.682;23.372;2023-03-19T12:47:41;95450.78;;;17.74;26.01
43711;BME280;29309;42.682;23.372;2023-03-19T12:50:11;95449.09;;;17.13;26.83
43711;BME280;29309;42.682;23.372;2023-03-19T12:52:40;95449.56;;;16.82;30.68
43711;BME280;29309;42.682;23.372;2023-03-19T12:55:31;95440.22;;;16.52;28.65
43711;BME280;29309;42.682;23.372;2023-03-19T12:58:36;95438.16;;;16.31;29.05
43711;BME280;29309;42.682;23.372;2023-03-19T13:01:03;95435.09;;;16.01;29.05
43711;BME280;29309;42.682;23.372;2023-03-19T13:03:36;95431.16;;;15.88;29.00
43711;BME280;29309;42.682;23.372;2023-03-19T13:06:08;95424.38;;;15.73;29.21
43711;BME280;29309;42.682;23.372;2023-03-19T13:11:38;95420.75;;;15.49;31.14
43711;BME280;29309;42.682;23.372;2023-03-19T13:17:19;95417.78;;;15.25;31.11
43711;BME280;29309;42.682;23.372;2023-03-19T13:19:49;95416.94;;;15.21;30.63
43711;BME280;29309;42.682;23.372;2023-03-19T13:22:23;95406.13;;;15.11;30.63
43711;BME280;29309;42.682;23.372;2023-03-19T13:24:50;95410.75;;;15.05;33.33
43711;BME280;29309;42.682;23.372;2023-03-19T13:27:30;95407.94;;;15.05;31.02
43711;BME280;29309;42.682;23.372;2023-03-19T13:32:33;95399.50;;;15.03;31.06
43711;BME280;29309;42.682;23.372;2023-03-19T13:35:33;95400.94;;;15.04;31.42
43711;BME280;29309;42.682;23.372;2023-03-19T13:43:02;95394.63;;;15.03;31.14
43711;BME280;29309;42.682;23.372;2023-03-19T13:45:33;95397.56;;;15.07;31.01
43711;BME280;29309;42.682;23.372;2023-03-19T13:54:17;95389.69;;;15.21;31.27
43711;BME280;29309;42.682;23.372;2023-03-19T13:59:26;95384.00;;;15.19;30.34
43711;BME280;29309;42.682;23.372;2023-03-19T14:01:52;95374.78;;;15.15;30.60
43711;BME280;29309;42.682;23.372;2023-03-19T14:04:32;95367.59;;;15.10;30.29
43711;BME280;29309;42.682;23.372;2023-03-19T14:07:17;95371.75;;;15.09;31.51
43711;BME280;29309;42.682;23.372;2023-03-19T14:09:48;95371.91;;;15.13;30.55
43711;BME280;29309;42.682;23.372;2023-03-19T14:14:47;95368.47;;;15.14;30.80
43711;BME280;29309;42.682;23.372;2023-03-19T14:17:15;95365.59;;;15.12;30.93
43711;BME280;29309;42.682;23.372;2023-03-19T14:19:43;95374.06;;;15.14;30.64
43711;BME280;29309;42.682;23.372;2023-03-19T14:22:18;95367.88;;;15.18;30.52
43711;BME280;29309;42.682;23.372;2023-03-19T14:25:18;95362.88;;;15.14;30.62
43711;BME280;29309;42.682;23.372;2023-03-19T14:27:47;95364.38;;;15.17;30.26
43711;BME280;29309;42.682;23.372;2023-03-19T14:30:38;95362.72;;;15.10;31.05